sensor_id;sensor_type;location;lat;lon;timestamp;pressure;altitude;pressure_sealevel;temperature;humidity
40730;BME280;26418;50.070;8.436;2023-02-28T00:00:08;101112.97;;;0.04;65.73
40730;BME280;26418;50.070;8.436;2023-02-28T00:02:41;101117.69;;;0.02;65.99
40730;BME280;26418;50.070;8.436;2023-02-28T00:05:08;101125.66;;;0.02;66.56
40730;BME280;26418;50.070;8.436;2023-02-28T00:07:35;101113.16;;;-0.05;66.67
40730;BME280;26418;50.070;8.436;2023-02-28T00:10:01;101129.28;;;-0.06;66.68
40730;BME280;26418;50.070;8.436;2023-02-28T00:12:27;101126.44;;;-0.11;66.97
40730;BME280;26418;50.070;8.436;2023-02-28T00:14:52;101123.34;;;-0.15;67.01
40730;BME280;26418;50.070;8.436;2023-02-28T00:17:17;101125.19;;;-0.09;66.83
40730;BME280;26418;50.070;8.436;2023-02-28T00:19:48;101128.06;;;-0.10;67.19
40730;BME280;26418;50.070;8.436;2023-02-28T00:22:15;101131.53;;;-0.10;67.29
40730;BME280;26418;50.070;8.436;2023-02-28T00:24:41;101126.63;;;-0.13;67.49
40730;BME280;26418;50.070;8.436;2023-02-28T00:27:06;101128.47;;;-0.13;67.50
40730;BME280;26418;50.070;8.436;2023-02-28T00:29:31;101125.75;;;-0.20;67.40
40730;BME280;26418;50.070;8.436;2023-02-28T00:31:57;101127.63;;;-0.21;67.77
40730;BME280;26418;50.070;8.436;2023-02-28T00:34:22;101122.28;;;-0.21;67.80
40730;BME280;26418;50.070;8.436;2023-02-28T00:36:47;101126.19;;;-0.23;67.41
40730;BME280;26418;50.070;8.436;2023-02-28T00:39:16;101125.34;;;-0.24;68.19
40730;BME280;26418;50.070;8.436;2023-02-28T00:41:42;101122.25;;;-0.27;67.73
40730;BME280;26418;50.070;8.436;2023-02-28T00:44:07;101114.88;;;-0.39;68.13
40730;BME280;26418;50.070;8.436;2023-02-28T00:46:32;101117.53;;;-0.39;68.35
40730;BME280;26418;50.070;8.436;2023-02-28T00:48:58;101125.50;;;-0.39;68.40
40730;BME280;26418;50.070;8.436;2023-02-28T00:51:23;101119.75;;;-0.42;69.14
40730;BME280;26418;50.070;8.436;2023-02-28T00:53:51;101117.28;;;-0.44;69.03
40730;BME280;26418;50.070;8.436;2023-02-28T00:56:17;101121.53;;;-0.50;69.56
40730;BME280;26418;50.070;8.436;2023-02-28T00:58:42;101122.38;;;-0.49;69.49
40730;BME280;26418;50.070;8.436;2023-02-28T01:01:07;101101.66;;;-0.60;69.54
40730;BME280;26418;50.070;8.436;2023-02-28T01:03:33;101113.31;;;-0.61;69.71
40730;BME280;26418;50.070;8.436;2023-02-28T01:05:58;101109.16;;;-0.77;70.37
40730;BME280;26418;50.070;8.436;2023-02-28T01:08:24;101127.38;;;-0.68;70.90
40730;BME280;26418;50.070;8.436;2023-02-28T01:10:49;101133.13;;;-0.64;70.76
40730;BME280;26418;50.070;8.436;2023-02-28T01:13:15;101119.41;;;-0.68;71.10
40730;BME280;26418;50.070;8.436;2023-02-28T01:15:45;101124.56;;;-0.59;71.36
40730;BME280;26418;50.070;8.436;2023-02-28T01:18:10;101127.28;;;-0.53;71.49
40730;BME280;26418;50.070;8.436;2023-02-28T01:20:37;101119.25;;;-0.59;71.27
40730;BME280;26418;50.070;8.436;2023-02-28T01:23:02;101119.06;;;-0.58;71.89
40730;BME280;26418;50.070;8.436;2023-02-28T01:25:28;101120.28;;;-0.60;71.98
40730;BME280;26418;50.070;8.436;2023-02-28T01:27:53;101120.09;;;-0.59;72.28
40730;BME280;26418;50.070;8.436;2023-02-28T01:30:19;101114.16;;;-0.61;72.69
40730;BME280;26418;50.070;8.436;2023-02-28T01:32:44;101108.59;;;-0.66;72.92
40730;BME280;26418;50.070;8.436;2023-02-28T01:35:10;101113.09;;;-0.67;73.03
40730;BME280;26418;50.070;8.436;2023-02-28T01:37:35;101114.31;;;-0.63;73.66
40730;BME280;26418;50.070;8.436;2023-02-28T01:40:01;101103.75;;;-0.56;73.18
40730;BME280;26418;50.070;8.436;2023-02-28T01:42:26;101107.22;;;-0.55;73.19
40730;BME280;26418;50.070;8.436;2023-02-28T01:47:34;101116.59;;;-0.59;73.51
40730;BME280;26418;50.070;8.436;2023-02-28T01:50:02;101107.97;;;-0.68;73.31
40730;BME280;26418;50.070;8.436;2023-02-28T01:52:30;101102.41;;;-0.73;73.48
40730;BME280;26418;50.070;8.436;2023-02-28T01:54:58;101096.03;;;-0.79;74.08
40730;BME280;26418;50.070;8.436;2023-02-28T01:57:29;101098.53;;;-0.71;74.08
40730;BME280;26418;50.070;8.436;2023-02-28T02:00:00;101098.97;;;-0.74;73.85
40730;BME280;26418;50.070;8.436;2023-02-28T02:02:30;101094.81;;;-0.83;74.29
40730;BME280;26418;50.070;8.436;2023-02-28T02:05:20;101087.06;;;-0.78;74.48
40730;BME280;26418;50.070;8.436;2023-02-28T02:07:48;101091.78;;;-0.80;74.53
40730;BME280;26418;50.070;8.436;2023-02-28T02:10:18;101090.72;;;-0.79;74.55
40730;BME280;26418;50.070;8.436;2023-02-28T02:18:36;101081.06;;;-0.93;74.61
40730;BME280;26418;50.070;8.436;2023-02-28T02:26:47;101092.25;;;-0.98;74.98
40730;BME280;26418;50.070;8.436;2023-02-28T02:35:15;101091.47;;;-0.92;74.78
40730;BME280;26418;50.070;8.436;2023-02-28T02:41:17;101083.72;;;-0.93;74.58
40730;BME280;26418;50.070;8.436;2023-02-28T02:43:49;101085.56;;;-0.94;74.68
40730;BME280;26418;50.070;8.436;2023-02-28T02:46:37;101079.41;;;-0.95;74.86
40730;BME280;26418;50.070;8.436;2023-02-28T02:49:07;101076.28;;;-1.05;74.30
40730;BME280;26418;50.070;8.436;2023-02-28T02:51:35;101088.78;;;-0.99;74.71
40730;BME280;26418;50.070;8.436;2023-02-28T02:54:12;101085.94;;;-0.97;74.23
40730;BME280;26418;50.070;8.436;2023-02-28T02:56:45;101085.72;;;-1.02;74.29
40730;BME280;26418;50.070;8.436;2023-02-28T02:59:13;101089.56;;;-1.05;74.41
40730;BME280;26418;50.070;8.436;2023-02-28T03:01:52;101089.56;;;-1.05;73.50
40730;BME280;26418;50.070;8.436;2023-02-28T03:04:20;101092.19;;;-1.12;74.17
40730;BME280;26418;50.070;8.436;2023-02-28T03:06:47;101095.84;;;-1.13;74.45
40730;BME280;26418;50.070;8.436;2023-02-28T03:09:12;101087.50;;;-1.09;74.57
40730;BME280;26418;50.070;8.436;2023-02-28T03:11:39;101096.66;;;-1.12;73.80
40730;BME280;26418;50.070;8.436;2023-02-28T03:19:57;101092.34;;;-1.13;73.45
40730;BME280;26418;50.070;8.436;2023-02-28T03:25:36;101074.69;;;-1.28;73.39
40730;BME280;26418;50.070;8.436;2023-02-28T03:28:18;101076.56;;;-1.21;73.79
40730;BME280;26418;50.070;8.436;2023-02-28T03:33:53;101080.84;;;-1.27;74.06
40730;BME280;26418;50.070;8.436;2023-02-28T03:36:25;101077.22;;;-1.19;73.43
40730;BME280;26418;50.070;8.436;2023-02-28T03:41:28;101086.59;;;-1.17;72.85
40730;BME280;26418;50.070;8.436;2023-02-28T03:44:06;101083.94;;;-1.23;72.98
40730;BME280;26418;50.070;8.436;2023-02-28T03:46:44;101085.53;;;-1.29;73.18
40730;BME280;26418;50.070;8.436;2023-02-28T03:49:27;101083.44;;;-1.34;73.27
40730;BME280;26418;50.070;8.436;2023-02-28T03:51:56;101086.28;;;-1.35;73.53
40730;BME280;26418;50.070;8.436;2023-02-28T03:54:32;101083.44;;;-1.34;73.26
40730;BME280;26418;50.070;8.436;2023-02-28T03:57:07;101073.41;;;-1.38;73.10
40730;BME280;26418;50.070;8.436;2023-02-28T03:59:48;101078.75;;;-1.32;73.10
40730;BME280;26418;50.070;8.436;2023-02-28T04:02:16;101087.97;;;-1.28;72.77
40730;BME280;26418;50.070;8.436;2023-02-28T04:04:41;101077.75;;;-1.31;72.48
40730;BME280;26418;50.070;8.436;2023-02-28T04:07:14;101069.88;;;-1.46;72.89
40730;BME280;26418;50.070;8.436;2023-02-28T04:09:39;101086.72;;;-1.32;72.70
40730;BME280;26418;50.070;8.436;2023-02-28T04:12:05;101093.03;;;-1.33;72.79
40730;BME280;26418;50.070;8.436;2023-02-28T04:14:30;101080.56;;;-1.39;72.51
40730;BME280;26418;50.070;8.436;2023-02-28T04:16:55;101086.72;;;-1.32;72.60
40730;BME280;26418;50.070;8.436;2023-02-28T04:19:21;101091.59;;;-1.35;72.51
40730;BME280;26418;50.070;8.436;2023-02-28T04:21:49;101064.00;;;-1.41;72.37
40730;BME280;26418;50.070;8.436;2023-02-28T04:24:18;101074.22;;;-1.38;72.00
40730;BME280;26418;50.070;8.436;2023-02-28T04:26:46;101074.69;;;-1.28;71.96
40730;BME280;26418;50.070;8.436;2023-02-28T04:29:14;101091.25;;;-1.25;71.29
40730;BME280;26418;50.070;8.436;2023-02-28T04:31:42;101091.41;;;-1.34;71.56
40730;BME280;26418;50.070;8.436;2023-02-28T04:34:07;101075.25;;;-1.39;71.79
40730;BME280;26418;50.070;8.436;2023-02-28T04:36:33;101089.13;;;-1.37;71.42
40730;BME280;26418;50.070;8.436;2023-02-28T04:38:58;101096.47;;;-1.39;71.81
40730;BME280;26418;50.070;8.436;2023-02-28T04:41:23;101092.91;;;-1.46;71.62
40730;BME280;26418;50.070;8.436;2023-02-28T04:43:50;101096.34;;;-1.52;72.16
40730;BME280;26418;50.070;8.436;2023-02-28T04:46:16;101095.97;;;-1.49;72.26
40730;BME280;26418;50.070;8.436;2023-02-28T04:48:42;101080.06;;;-1.49;72.19
40730;BME280;26418;50.070;8.436;2023-02-28T04:51:11;101094.19;;;-1.42;71.32
40730;BME280;26418;50.070;8.436;2023-02-28T04:53:38;101079.22;;;-1.50;71.77
40730;BME280;26418;50.070;8.436;2023-02-28T04:56:05;101081.25;;;-1.52;71.64
40730;BME280;26418;50.070;8.436;2023-02-28T04:58:31;101081.88;;;-1.50;71.59
40730;BME280;26418;50.070;8.436;2023-02-28T05:01:05;101090.81;;;-1.58;71.30
40730;BME280;26418;50.070;8.436;2023-02-28T05:03:38;101088.28;;;-1.66;72.03
40730;BME280;26418;50.070;8.436;2023-02-28T05:06:06;101087.63;;;-1.68;72.12
40730;BME280;26418;50.070;8.436;2023-02-28T05:08:31;101095.97;;;-1.71;72.08
40730;BME280;26418;50.070;8.436;2023-02-28T05:10:56;101088.78;;;-1.77;73.05
40730;BME280;26418;50.070;8.436;2023-02-28T05:13:22;101085.56;;;-1.72;72.38
40730;BME280;26418;50.070;8.436;2023-02-28T05:15:48;101093.81;;;-1.61;72.08
40730;BME280;26418;50.070;8.436;2023-02-28T05:18:13;101089.38;;;-1.53;71.33
40730;BME280;26418;50.070;8.436;2023-02-28T05:20:38;101097.78;;;-1.50;71.51
40730;BME280;26418;50.070;8.436;2023-02-28T05:23:04;101100.44;;;-1.50;71.61
40730;BME280;26418;50.070;8.436;2023-02-28T05:25:29;101094.25;;;-1.57;71.36
40730;BME280;26418;50.070;8.436;2023-02-28T05:27:54;101103.28;;;-1.51;70.89
40730;BME280;26418;50.070;8.436;2023-02-28T05:30:20;101102.66;;;-1.53;71.22
40730;BME280;26418;50.070;8.436;2023-02-28T05:32:50;101100.84;;;-1.53;70.97
40730;BME280;26418;50.070;8.436;2023-02-28T05:35:15;101105.44;;;-1.40;70.52
40730;BME280;26418;50.070;8.436;2023-02-28T05:37:40;101107.47;;;-1.42;70.40
40730;BME280;26418;50.070;8.436;2023-02-28T05:40:06;101098.66;;;-1.43;70.88
40730;BME280;26418;50.070;8.436;2023-02-28T05:42:35;101090.31;;;-1.39;70.48
40730;BME280;26418;50.070;8.436;2023-02-28T05:45:00;101087.69;;;-1.39;70.78
40730;BME280;26418;50.070;8.436;2023-02-28T05:47:26;101102.66;;;-1.32;70.10
40730;BME280;26418;50.070;8.436;2023-02-28T05:49:51;101097.34;;;-1.32;70.39
40730;BME280;26418;50.070;8.436;2023-02-28T05:52:17;101108.75;;;-1.31;70.34
40730;BME280;26418;50.070;8.436;2023-02-28T05:54:42;101098.09;;;-1.38;70.46
40730;BME280;26418;50.070;8.436;2023-02-28T05:57:08;101110.97;;;-1.35;70.15
40730;BME280;26418;50.070;8.436;2023-02-28T05:59:33;101108.84;;;-1.46;70.01
40730;BME280;26418;50.070;8.436;2023-02-28T06:01:58;101109.41;;;-1.51;70.30
40730;BME280;26418;50.070;8.436;2023-02-28T06:04:24;101104.88;;;-1.57;70.75
40730;BME280;26418;50.070;8.436;2023-02-28T06:06:50;101113.09;;;-1.52;70.89
40730;BME280;26418;50.070;8.436;2023-02-28T06:09:17;101111.50;;;-1.46;71.17
40730;BME280;26418;50.070;8.436;2023-02-28T06:11:43;101102.41;;;-1.59;70.45
40730;BME280;26418;50.070;8.436;2023-02-28T06:14:17;101115.56;;;-1.50;70.40
40730;BME280;26418;50.070;8.436;2023-02-28T06:16:43;101101.13;;;-1.63;70.37
40730;BME280;26418;50.070;8.436;2023-02-28T06:19:09;101121.78;;;-1.58;71.08
40730;BME280;26418;50.070;8.436;2023-02-28T06:21:34;101113.34;;;-1.68;70.76
40730;BME280;26418;50.070;8.436;2023-02-28T06:23:59;101131.16;;;-1.62;70.53
40730;BME280;26418;50.070;8.436;2023-02-28T06:26:25;101123.19;;;-1.62;70.47
40730;BME280;26418;50.070;8.436;2023-02-28T06:28:51;101121.19;;;-1.60;70.47
40730;BME280;26418;50.070;8.436;2023-02-28T06:31:17;101122.44;;;-1.56;70.59
40730;BME280;26418;50.070;8.436;2023-02-28T06:33:44;101129.25;;;-1.47;70.31
40730;BME280;26418;50.070;8.436;2023-02-28T06:36:11;101115.31;;;-1.55;69.77
40730;BME280;26418;50.070;8.436;2023-02-28T06:38:38;101126.97;;;-1.50;69.83
40730;BME280;26418;50.070;8.436;2023-02-28T06:41:04;101127.59;;;-1.48;70.05
40730;BME280;26418;50.070;8.436;2023-02-28T06:43:32;101123.59;;;-1.44;69.69
40730;BME280;26418;50.070;8.436;2023-02-28T06:45:59;101132.34;;;-1.43;69.43
40730;BME280;26418;50.070;8.436;2023-02-28T06:48:26;101137.00;;;-1.45;69.16
40730;BME280;26418;50.070;8.436;2023-02-28T06:50:52;101124.19;;;-1.42;69.44
40730;BME280;26418;50.070;8.436;2023-02-28T06:53:17;101125.66;;;-1.39;68.87
40730;BME280;26418;50.070;8.436;2023-02-28T06:55:43;101139.81;;;-1.32;68.40
40730;BME280;26418;50.070;8.436;2023-02-28T06:58:09;101139.16;;;-1.34;68.40
40730;BME280;26418;50.070;8.436;2023-02-28T07:00:45;101123.63;;;-1.37;68.34
40730;BME280;26418;50.070;8.436;2023-02-28T07:03:11;101145.78;;;-1.23;67.47
40730;BME280;26418;50.070;8.436;2023-02-28T07:05:38;101150.97;;;-1.15;67.65
40730;BME280;26418;50.070;8.436;2023-02-28T07:08:05;101134.25;;;-1.08;66.93
40730;BME280;26418;50.070;8.436;2023-02-28T07:10:31;101145.94;;;-1.03;66.92
40730;BME280;26418;50.070;8.436;2023-02-28T07:12:57;101151.50;;;-0.98;66.25
40730;BME280;26418;50.070;8.436;2023-02-28T07:15:23;101135.53;;;-1.04;65.97
40730;BME280;26418;50.070;8.436;2023-02-28T07:17:48;101145.41;;;-0.91;65.58
40730;BME280;26418;50.070;8.436;2023-02-28T07:20:13;101143.00;;;-0.86;65.08
40730;BME280;26418;50.070;8.436;2023-02-28T07:22:39;101149.00;;;-0.77;65.37
40730;BME280;26418;50.070;8.436;2023-02-28T07:25:05;101150.06;;;-0.65;64.72
40730;BME280;26418;50.070;8.436;2023-02-28T07:27:30;101143.16;;;-0.59;64.11
40730;BME280;26418;50.070;8.436;2023-02-28T07:29:56;101136.84;;;-0.58;64.09
40730;BME280;26418;50.070;8.436;2023-02-28T07:32:22;101144.28;;;-0.47;63.62
40730;BME280;26418;50.070;8.436;2023-02-28T07:34:47;101140.22;;;-0.36;63.58
40730;BME280;26418;50.070;8.436;2023-02-28T07:37:13;101150.91;;;-0.23;62.97
40730;BME280;26418;50.070;8.436;2023-02-28T07:39:39;101140.09;;;-0.21;62.94
40730;BME280;26418;50.070;8.436;2023-02-28T07:42:08;101143.59;;;-0.14;63.00
40730;BME280;26418;50.070;8.436;2023-02-28T07:44:37;101139.13;;;-0.07;62.79
40730;BME280;26418;50.070;8.436;2023-02-28T07:47:09;101149.97;;;-0.02;64.31
40730;BME280;26418;50.070;8.436;2023-02-28T07:49:37;101134.84;;;-0.01;62.84
40730;BME280;26418;50.070;8.436;2023-02-28T07:52:04;101146.97;;;0.08;62.91
40730;BME280;26418;50.070;8.436;2023-02-28T07:54:29;101142.22;;;0.10;63.34
40730;BME280;26418;50.070;8.436;2023-02-28T07:56:55;101149.81;;;0.13;62.70
40730;BME280;26418;50.070;8.436;2023-02-28T07:59:20;101151.69;;;0.20;62.77
40730;BME280;26418;50.070;8.436;2023-02-28T08:01:45;101150.25;;;0.30;61.71
40730;BME280;26418;50.070;8.436;2023-02-28T08:04:10;101143.31;;;0.29;61.24
40730;BME280;26418;50.070;8.436;2023-02-28T08:06:36;101149.25;;;0.31;61.38
40730;BME280;26418;50.070;8.436;2023-02-28T08:09:02;101158.47;;;0.36;61.61
40730;BME280;26418;50.070;8.436;2023-02-28T08:11:27;101155.41;;;0.39;61.16
40730;BME280;26418;50.070;8.436;2023-02-28T08:13:52;101152.97;;;0.44;60.78
40730;BME280;26418;50.070;8.436;2023-02-28T08:16:19;101152.34;;;0.42;60.38
40730;BME280;26418;50.070;8.436;2023-02-28T08:18:48;101152.16;;;0.50;60.41
40730;BME280;26418;50.070;8.436;2023-02-28T08:21:14;101148.06;;;0.47;60.82
40730;BME280;26418;50.070;8.436;2023-02-28T08:23:39;101145.00;;;0.64;60.03
40730;BME280;26418;50.070;8.436;2023-02-28T08:26:04;101152.16;;;0.70;59.92
40730;BME280;26418;50.070;8.436;2023-02-28T08:28:30;101154.63;;;0.78;59.62
40730;BME280;26418;50.070;8.436;2023-02-28T08:30:55;101154.22;;;0.82;59.62
40730;BME280;26418;50.070;8.436;2023-02-28T08:33:21;101161.19;;;0.89;59.79
40730;BME280;26418;50.070;8.436;2023-02-28T08:35:47;101158.31;;;0.98;59.29
40730;BME280;26418;50.070;8.436;2023-02-28T08:38:13;101164.66;;;1.03;58.47
40730;BME280;26418;50.070;8.436;2023-02-28T08:40:38;101167.56;;;1.08;58.65
40730;BME280;26418;50.070;8.436;2023-02-28T08:43:03;101155.25;;;1.01;58.17
40730;BME280;26418;50.070;8.436;2023-02-28T08:45:29;101159.16;;;1.05;58.10
40730;BME280;26418;50.070;8.436;2023-02-28T08:47:55;101159.97;;;1.12;57.74
40730;BME280;26418;50.070;8.436;2023-02-28T08:50:21;101173.06;;;1.20;57.46
40730;BME280;26418;50.070;8.436;2023-02-28T08:52:46;101165.66;;;1.29;57.11
40730;BME280;26418;50.070;8.436;2023-02-28T08:55:12;101159.09;;;1.38;57.10
40730;BME280;26418;50.070;8.436;2023-02-28T08:57:37;101139.63;;;1.38;57.64
40730;BME280;26418;50.070;8.436;2023-02-28T09:00:03;101163.13;;;1.61;57.18
40730;BME280;26418;50.070;8.436;2023-02-28T09:02:30;101156.16;;;1.67;54.79
40730;BME280;26418;50.070;8.436;2023-02-28T09:04:56;101162.69;;;1.78;53.56
40730;BME280;26418;50.070;8.436;2023-02-28T09:07:21;101151.13;;;1.91;54.15
40730;BME280;26418;50.070;8.436;2023-02-28T09:09:47;101164.59;;;2.09;53.82
40730;BME280;26418;50.070;8.436;2023-02-28T09:12:27;101158.41;;;2.15;52.30
40730;BME280;26418;50.070;8.436;2023-02-28T09:14:53;101161.53;;;2.12;51.60
40730;BME280;26418;50.070;8.436;2023-02-28T09:17:19;101162.31;;;2.19;50.87
40730;BME280;26418;50.070;8.436;2023-02-28T09:19:47;101147.69;;;2.22;51.23
40730;BME280;26418;50.070;8.436;2023-02-28T09:22:13;101158.91;;;2.38;50.42
40730;BME280;26418;50.070;8.436;2023-02-28T09:24:38;101154.56;;;2.43;49.89
40730;BME280;26418;50.070;8.436;2023-02-28T09:27:04;101157.88;;;2.39;49.70
40730;BME280;26418;50.070;8.436;2023-02-28T09:29:34;101140.84;;;2.33;50.29
40730;BME280;26418;50.070;8.436;2023-02-28T09:32:00;101152.50;;;2.45;51.29
40730;BME280;26418;50.070;8.436;2023-02-28T09:34:26;101155.03;;;2.65;51.05
40730;BME280;26418;50.070;8.436;2023-02-28T09:36:52;101152.91;;;2.74;49.04
40730;BME280;26418;50.070;8.436;2023-02-28T09:39:22;101157.59;;;2.79;48.83
40730;BME280;26418;50.070;8.436;2023-02-28T09:41:51;101160.06;;;2.80;48.53
40730;BME280;26418;50.070;8.436;2023-02-28T09:44:38;101145.16;;;2.91;48.90
40730;BME280;26418;50.070;8.436;2023-02-28T09:47:16;101137.09;;;2.98;48.32
40730;BME280;26418;50.070;8.436;2023-02-28T09:49:46;101146.41;;;3.14;48.37
40730;BME280;26418;50.070;8.436;2023-02-28T09:52:16;101149.63;;;3.23;48.08
40730;BME280;26418;50.070;8.436;2023-02-28T09:54:43;101135.81;;;3.26;47.71
40730;BME280;26418;50.070;8.436;2023-02-28T10:02:45;101152.97;;;3.74;45.18
40730;BME280;26418;50.070;8.436;2023-02-28T10:05:16;101151.03;;;3.62;45.32
40730;BME280;26418;50.070;8.436;2023-02-28T10:10:50;101144.81;;;3.69;45.08
40730;BME280;26418;50.070;8.436;2023-02-28T10:13:34;101145.25;;;3.66;44.96
40730;BME280;26418;50.070;8.436;2023-02-28T10:16:17;101150.13;;;3.87;45.37
40730;BME280;26418;50.070;8.436;2023-02-28T10:19:06;101138.00;;;4.03;45.02
40730;BME280;26418;50.070;8.436;2023-02-28T10:21:57;101123.69;;;4.09;43.78
40730;BME280;26418;50.070;8.436;2023-02-28T10:24:42;101143.69;;;4.25;44.21
40730;BME280;26418;50.070;8.436;2023-02-28T10:27:16;101148.72;;;4.34;44.41
40730;BME280;26418;50.070;8.436;2023-02-28T10:29:50;101142.78;;;4.44;44.55
40730;BME280;26418;50.070;8.436;2023-02-28T10:32:18;101152.09;;;4.41;44.51
40730;BME280;26418;50.070;8.436;2023-02-28T10:34:44;101149.75;;;4.33;44.27
40730;BME280;26418;50.070;8.436;2023-02-28T10:37:16;101141.97;;;4.31;44.74
40730;BME280;26418;50.070;8.436;2023-02-28T10:39:46;101150.16;;;4.18;44.31
40730;BME280;26418;50.070;8.436;2023-02-28T10:42:22;101153.66;;;4.18;44.24
40730;BME280;26418;50.070;8.436;2023-02-28T10:45:04;101157.09;;;4.07;44.04
40730;BME280;26418;50.070;8.436;2023-02-28T10:47:31;101142.75;;;4.01;43.47
40730;BME280;26418;50.070;8.436;2023-02-28T10:49:58;101141.09;;;4.19;44.63
40730;BME280;26418;50.070;8.436;2023-02-28T10:52:38;101150.16;;;4.48;44.49
40730;BME280;26418;50.070;8.436;2023-02-28T10:55:24;101138.75;;;4.53;43.54
40730;BME280;26418;50.070;8.436;2023-02-28T10:57:51;101139.88;;;4.45;42.69
40730;BME280;26418;50.070;8.436;2023-02-28T11:00:19;101137.69;;;4.54;42.83
40730;BME280;26418;50.070;8.436;2023-02-28T11:02:46;101145.06;;;4.59;42.88
40730;BME280;26418;50.070;8.436;2023-02-28T11:05:27;101120.78;;;4.53;42.86
40730;BME280;26418;50.070;8.436;2023-02-28T11:07:55;101128.06;;;4.77;41.93
40730;BME280;26418;50.070;8.436;2023-02-28T11:10:25;101123.88;;;4.81;41.55
40730;BME280;26418;50.070;8.436;2023-02-28T11:12:54;101126.78;;;4.91;41.36
40730;BME280;26418;50.070;8.436;2023-02-28T11:15:28;101108.03;;;4.91;41.79
40730;BME280;26418;50.070;8.436;2023-02-28T11:17:59;101099.06;;;5.09;41.13
40730;BME280;26418;50.070;8.436;2023-02-28T11:20:28;101109.97;;;5.43;41.16
40730;BME280;26418;50.070;8.436;2023-02-28T11:22:55;101115.75;;;5.64;40.82
40730;BME280;26418;50.070;8.436;2023-02-28T11:25:35;101103.94;;;5.77;40.32
40730;BME280;26418;50.070;8.436;2023-02-28T11:28:04;101113.53;;;5.73;39.63
40730;BME280;26418;50.070;8.436;2023-02-28T11:30:38;101109.22;;;5.72;39.27
40730;BME280;26418;50.070;8.436;2023-02-28T11:33:27;101102.50;;;5.86;38.46
40730;BME280;26418;50.070;8.436;2023-02-28T11:35:58;101100.59;;;5.98;38.16
40730;BME280;26418;50.070;8.436;2023-02-28T11:38:25;101101.63;;;6.09;38.53
40730;BME280;26418;50.070;8.436;2023-02-28T11:52:06;101096.72;;;6.06;39.15
40730;BME280;26418;50.070;8.436;2023-02-28T11:54:50;101090.22;;;6.02;38.67
40730;BME280;26418;50.070;8.436;2023-02-28T11:57:35;101089.56;;;5.83;38.76
40730;BME280;26418;50.070;8.436;2023-02-28T12:13:48;101095.38;;;6.21;43.67
40730;BME280;26418;50.070;8.436;2023-02-28T12:16:23;101084.41;;;6.56;40.70
40730;BME280;26418;50.070;8.436;2023-02-28T12:27:36;101095.22;;;5.98;39.42
40730;BME280;26418;50.070;8.436;2023-02-28T12:30:05;101084.75;;;5.85;40.57
40730;BME280;26418;50.070;8.436;2023-02-28T12:33:11;101087.56;;;5.90;40.60
40730;BME280;26418;50.070;8.436;2023-02-28T12:35:49;101075.25;;;5.94;40.32
40730;BME280;26418;50.070;8.436;2023-02-28T12:44:11;101088.66;;;6.06;39.79
40730;BME280;26418;50.070;8.436;2023-02-28T12:46:42;101083.91;;;5.96;39.52
40730;BME280;26418;50.070;8.436;2023-02-28T12:49:19;101090.06;;;5.97;39.45
40730;BME280;26418;50.070;8.436;2023-02-28T12:51:47;101072.06;;;5.80;38.80
40730;BME280;26418;50.070;8.436;2023-02-28T13:00:01;101066.41;;;5.65;40.41
40730;BME280;26418;50.070;8.436;2023-02-28T13:10:43;101070.28;;;5.57;40.16
40730;BME280;26418;50.070;8.436;2023-02-28T13:13:15;101061.16;;;5.58;39.44
40730;BME280;26418;50.070;8.436;2023-02-28T13:15:56;101069.25;;;5.46;39.39
40730;BME280;26418;50.070;8.436;2023-02-28T13:18:35;101060.41;;;5.46;40.31
40730;BME280;26418;50.070;8.436;2023-02-28T13:21:09;101058.63;;;5.51;39.73
40730;BME280;26418;50.070;8.436;2023-02-28T13:23:58;101069.28;;;5.34;40.50
40730;BME280;26418;50.070;8.436;2023-02-28T13:29:00;101067.56;;;5.16;40.53
40730;BME280;26418;50.070;8.436;2023-02-28T13:31:26;101065.72;;;5.05;40.64
40730;BME280;26418;50.070;8.436;2023-02-28T13:36:31;101052.06;;;4.83;41.19
40730;BME280;26418;50.070;8.436;2023-02-28T13:39:02;101047.91;;;4.87;41.43
40730;BME280;26418;50.070;8.436;2023-02-28T13:44:07;101066.66;;;4.99;41.22
40730;BME280;26418;50.070;8.436;2023-02-28T13:46:35;101069.09;;;5.00;40.77
40730;BME280;26418;50.070;8.436;2023-02-28T13:51:47;101059.22;;;4.77;40.78
40730;BME280;26418;50.070;8.436;2023-02-28T13:54:16;101070.38;;;4.74;40.93
40730;BME280;26418;50.070;8.436;2023-02-28T14:00:02;101056.03;;;4.80;41.59
40730;BME280;26418;50.070;8.436;2023-02-28T14:05:14;101045.47;;;4.85;41.15
40730;BME280;26418;50.070;8.436;2023-02-28T14:07:47;101057.09;;;4.79;41.64
40730;BME280;26418;50.070;8.436;2023-02-28T14:10:44;101056.53;;;4.77;41.79
40730;BME280;26418;50.070;8.436;2023-02-28T14:13:36;101059.66;;;4.74;41.76
40730;BME280;26418;50.070;8.436;2023-02-28T14:16:05;101056.19;;;4.74;42.58
40730;BME280;26418;50.070;8.436;2023-02-28T14:18:41;101055.50;;;4.78;42.20
40730;BME280;26418;50.070;8.436;2023-02-28T14:21:23;101052.66;;;4.85;41.86
40730;BME280;26418;50.070;8.436;2023-02-28T14:26:57;101052.66;;;4.97;41.97
40730;BME280;26418;50.070;8.436;2023-02-28T14:37:52;101047.56;;;4.60;42.40
40730;BME280;26418;50.070;8.436;2023-02-28T14:40:27;101044.38;;;4.51;42.80
40730;BME280;26418;50.070;8.436;2023-02-28T14:42:58;101043.81;;;4.49;43.00
40730;BME280;26418;50.070;8.436;2023-02-28T14:45:28;101034.84;;;4.43;43.06
40730;BME280;26418;50.070;8.436;2023-02-28T14:47:54;101032.38;;;4.41;43.13
40730;BME280;26418;50.070;8.436;2023-02-28T14:50:33;101034.16;;;4.48;43.11
40730;BME280;26418;50.070;8.436;2023-02-28T14:53:01;101033.47;;;4.52;44.14
40730;BME280;26418;50.070;8.436;2023-02-28T14:55:36;101023.78;;;4.51;43.19
40730;BME280;26418;50.070;8.436;2023-02-28T14:58:06;101026.13;;;4.60;43.38
40730;BME280;26418;50.070;8.436;2023-02-28T15:00:49;101029.94;;;4.64;43.35
40730;BME280;26418;50.070;8.436;2023-02-28T15:03:33;101038.56;;;4.66;42.94
40730;BME280;26418;50.070;8.436;2023-02-28T15:06:21;101034.63;;;4.68;43.13
40730;BME280;26418;50.070;8.436;2023-02-28T15:09:07;101039.03;;;4.75;43.52
40730;BME280;26418;50.070;8.436;2023-02-28T15:11:33;101030.53;;;4.78;43.64
40730;BME280;26418;50.070;8.436;2023-02-28T15:14:00;101026.00;;;4.90;43.95